Flight Track Log - Related Links

Times and Time Zones

All times are in EDT time to prevent confusion due to time zone crossing. See the N960DL flight status page for this flight to view local times or setup timezone preferences in your user account.

Time Position Orientation Groundspeed Altitude Reporting Facility
EDT Latitude Longitude Course Direction KTS MPH feet Rate Location/Type
Sat 01:24:59 PM 32.9167 -97.0333 90° East 155 178 1,500  Level Dallas / Fort Worth TRACON
Sat 01:27:00 PM 32.6966 -96.7603 68° East  Level FlightAware Approximate
Sat 01:27:27 PM 33.0142 -96.9253 43° Northeast 251 289 7,100  Level Fort Worth Center
Sat 01:28:00 PM 32.7463 -96.6114 68° East  Level FlightAware Approximate
Sat 01:28:27 PM 32.9906 -96.8239 105° East 270 311 9,400  Level Fort Worth Center
Sat 01:29:00 PM 32.7997 -96.4644 65° Northeast  Level FlightAware Approximate
Sat 01:29:27 PM 32.9631 -96.7178 107° East 316 364 10,800  Level Fort Worth Center
Sat 01:30:00 PM 32.8500 -96.3171 90° East  Level FlightAware Approximate
Sat 01:30:27 PM 32.9289 -96.5867 107° East 398 458 12,700  Level Fort Worth Center
Sat 01:31:27 PM 32.8986 -96.4633 106° East 429 494 14,600 2,100 Climbing Fort Worth Center
Sat 01:32:27 PM 32.8661 -96.3053 104° East 444 511 16,900 2,000 Climbing Fort Worth Center
Sat 01:33:27 PM 32.8669 -96.1644 90° East 449 517 18,600 1,800 Climbing Fort Worth Center
Sat 01:34:27 PM 32.8714 -95.9936 88° East 467 537 20,500 1,700 Climbing Fort Worth Center
Sat 01:35:27 PM 32.8739 -95.8478 89° East 481 554 22,000 1,500 Climbing Fort Worth Center
Sat 01:36:27 PM 32.8692 -95.6622 92° East 500 575 23,500 1,300 Climbing Fort Worth Center
Sat 01:37:27 PM 32.8544 -95.5042 96° East 517 595 24,600 1,300 Climbing Fort Worth Center
Sat 01:38:27 PM 32.8494 -95.3314 92° East 523 602 26,100 1,450 Climbing Fort Worth Center
Sat 01:39:27 PM 32.8444 -95.1533 92° East 528 608 27,500 1,500 Climbing Fort Worth Center
Sat 01:40:27 PM 32.8369 -94.9756 93° East 533 613 29,100 1,450 Climbing Fort Worth Center
Sat 01:41:27 PM 32.8272 -94.8003 94° East 539 620 30,400 1,150 Climbing Fort Worth Center
Sat 01:42:27 PM 32.8169 -94.6203 94° East 534 615 31,400 950 Climbing Fort Worth Center
Sat 01:43:27 PM 32.8067 -94.4425 94° East 534 615 32,300 800 Climbing Fort Worth Center
Sat 01:44:27 PM 32.7961 -94.2625 94° East 534 615 33,000 350 Climbing Fort Worth Center
Sat 01:45:27 PM 32.7875 -94.0897 93° East 534 615 33,000  Level Fort Worth Center
Sat 01:46:27 PM 32.7783 -93.9122 93° East 534 615 33,000  Level Fort Worth Center
Sat 01:47:27 PM 32.7692 -93.7372 94° East 534 615 33,000  Level Fort Worth Center
Sat 01:48:27 PM 32.7578 -93.5600 94° East 534 615 33,000  Level Fort Worth Center
Sat 01:49:27 PM 32.7458 -93.3778 94° East 539 620 33,000  Level Fort Worth Center
Sat 01:50:27 PM 32.7378 -93.2028 93° East 534 615 33,000  Level Fort Worth Center
Sat 01:51:27 PM 32.7256 -93.0281 95° East 534 615 33,000  Level Fort Worth Center
Sat 01:52:27 PM 32.7153 -92.8531 94° East 534 615 33,000  Level Fort Worth Center
Sat 01:53:27 PM 32.7025 -92.6761 95° East 534 615 33,000  Level Fort Worth Center
Sat 01:54:27 PM 32.6956 -92.4986 93° East 534 615 33,000  Level Fort Worth Center
Sat 01:56:44 PM 32.6664 -92.0797 95° East 531 611 33,000  Level Memphis Center
Sat 01:57:44 PM 32.6456 -91.9239 99° East 542 624 33,000  Level Memphis Center
Sat 01:58:44 PM 32.6372 -91.7486 93° East 542 624 33,000  Level Memphis Center
Sat 01:59:44 PM 32.6203 -91.5683 96° East 537 618 33,000  Level Memphis Center
Sat 02:00:44 PM 32.6092 -91.3956 94° East 542 624 33,000  Level Memphis Center
Sat 02:01:44 PM 32.5958 -91.2228 95° East 537 618 33,000  Level Memphis Center
Sat 02:02:44 PM 32.5783 -91.0428 97° East 537 618 33,000  Level Memphis Center
Sat 02:03:44 PM 32.5644 -90.8700 95° East 537 618 33,000  Level Memphis Center
Sat 02:04:44 PM 32.5503 -90.6925 95° East 537 618 33,000  Level Memphis Center
Sat 02:05:44 PM 32.5342 -90.4978 96° East 544 626 33,000  Level Memphis Center
Sat 02:06:44 PM 32.5194 -90.3178 95° East 538 619 33,000  Level Memphis Center
Sat 02:07:44 PM 32.5047 -90.1456 96° East 538 619 33,000  Level Memphis Center
Sat 02:08:44 PM 32.4875 -89.9706 97° East 538 619 33,000  Level Memphis Center
Sat 02:09:44 PM 32.4722 -89.7958 96° East 538 619 33,000  Level Memphis Center
Sat 02:10:44 PM 32.4567 -89.6236 96° East 538 619 33,000  Level Memphis Center
Sat 02:11:44 PM 32.4411 -89.4539 96° East 533 613 33,000  Level Memphis Center
Sat 02:12:44 PM 32.4250 -89.2794 96° East 533 613 33,000  Level Memphis Center
Sat 02:13:44 PM 32.4067 -89.1122 97° East 522 601 33,000  Level Memphis Center
Sat 02:14:44 PM 32.3925 -88.9550 96° East 522 601 33,000  Level Memphis Center
Sat 02:15:44 PM 32.3822 -88.7831 94° East 522 601 33,000  Level Memphis Center
Sat 02:18:01 PM 32.4278 -88.3819 82° East 516 594 33,000  Level Atlanta Center
Sat 02:19:01 PM 32.4483 -88.2108 82° East 523 602 33,000  Level Atlanta Center
Sat 02:20:01 PM 32.4686 -88.0419 82° East 517 595 33,000 -650 Level Atlanta Center
Sat 02:21:01 PM 32.4839 -87.8875 83° East 519 597 31,700 -1,650 Descending Atlanta Center
Sat 02:22:01 PM 32.5019 -87.7108 83° East 524 603 29,700 -1,650 Descending Atlanta Center
Sat 02:23:01 PM 32.5214 -87.5367 82° East 524 603 28,400 -1,250 Descending Atlanta Center
Sat 02:24:01 PM 32.5389 -87.3650 83° East 524 603 27,200 -700 Descending Atlanta Center
Sat 02:25:01 PM 32.5597 -87.1983 82° East 519 597 27,000 -100 Descending Atlanta Center
Sat 02:26:01 PM 32.5828 -87.0314 81° East 519 597 27,000  Level Atlanta Center
Sat 02:27:01 PM 32.6200 -86.8700 75° East 514 592 27,000  Level Atlanta Center
Sat 02:28:01 PM 32.6697 -86.6939 71° East 514 592 27,000  Level Atlanta Center
Sat 02:29:01 PM 32.7128 -86.5322 72° East 508 585 27,000  Level Atlanta Center
Sat 02:30:01 PM 32.7558 -86.3681 73° East 508 585 27,000  Level Atlanta Center
Sat 02:31:01 PM 32.7939 -86.2183 73° East 502 578 27,000 -300 Level Atlanta Center
Sat 02:32:01 PM 32.8300 -86.0683 74° East 477 549 26,400 -1,200 Descending Atlanta Center
Sat 02:33:01 PM 32.8675 -85.9283 72° East 451 519 24,600 -1,700 Descending Atlanta Center
Sat 02:34:01 PM 32.9278 -85.8108 59° Northeast 416 479 23,000 -1,550 Descending Atlanta Center
Sat 02:35:01 PM 33.0003 -85.7058 51° Northeast 411 473 21,500 -1,400 Descending Atlanta Center
Sat 02:36:01 PM 33.0786 -85.6181 43° Northeast 399 459 20,200 -1,300 Descending Atlanta Center
Sat 02:37:01 PM 33.1611 -85.5425 37° Northeast 377 434 18,900 -1,000 Descending Atlanta Center
Sat 02:38:01 PM 33.2656 -85.5219 North 364 419 18,200 -1,050 Descending Atlanta Center
Sat 02:39:01 PM 33.3311 -85.4511 42° Northeast 353 406 16,800 -1,450 Descending Atlanta Center
Sat 02:40:01 PM 33.3303 -85.3417 90° East 292 336 15,300 -1,550 Descending Atlanta Center
Sat 02:41:01 PM 33.3250 -85.2372 93° East 293 337 13,700 -1,250 Descending Atlanta Center
Sat 02:42:01 PM 33.3261 -85.1328 89° East 304 350 12,800 -1,000 Descending Atlanta Center
Sat 02:43:01 PM 33.3206 -85.0383 94° East 299 344 11,700 -1,100 Descending Atlanta Center
Sat 02:44:01 PM 33.2961 -84.9558 109° East 274 315 10,600 -1,100 Descending Atlanta Center
Sat 02:45:01 PM 33.2739 -84.8761 108° East 262 302 9,500 -1,550 Descending Atlanta Center
Sat 02:46:01 PM 33.2889 -84.7917 78° East 227 261 7,500 -2,000 Descending Atlanta Center
Sat 02:47:01 PM 33.3725 -84.7975 357° North 209 241 5,500 -1,557 Descending Atlanta Center
Sat 02:48:12 PM 33.4667 -84.8167 350° North 277 319 4,100 -687 Descending Atlanta TRACON
Sat 02:49:12 PM 33.5333 -84.8333 348° North 271 312 4,000 -50 Descending Atlanta TRACON
Sat 02:50:12 PM 33.6000 -84.8667 337° Northwest 234 269 4,000 -150 Level Atlanta TRACON
Sat 02:51:12 PM 33.6167 -84.8000 73° East 185 213 3,700 -450 Descending Atlanta TRACON
Sat 02:52:12 PM 33.6167 -84.7500 90° East 193 222 3,100 -300 Descending Atlanta TRACON
Sat 02:53:12 PM 33.6167 -84.6833 90° East 186 214 3,100  Level Atlanta TRACON
Sat 02:54:12 PM 33.6167 -84.6167 90° East 183 211 3,100 -100 Level Atlanta TRACON
Sat 02:55:12 PM 33.6167 -84.5500 90° East 184 212 2,900 -600 Descending Atlanta TRACON
Sat 02:56:12 PM 33.6167 -84.5000 90° East 156 180 1,900 -1,000 Descending Atlanta TRACON

Login

Don't have an account? Register now (free) for customized features, flight alerts, and more!